Time;durP1;ratioP1;P1;durP2;ratioP2;P2;SDS_P1;SDS_P2;PMS_P1;PMS_P2;Temp;Humidity;BMP_temperature;BMP_pressure;BME280_temperature;BME280_humidity;BME280_pressure;Samples;Min_cycle;Max_cycle;Signal;HPM_P1;HPM_P2
2022/07/22 00:00:58;;;;;;;5.40;4.70;;;;;;;26.35;55.96;99442.97;5114733;28;20662;-70
2022/07/22 00:03:25;;;;;;;5.00;4.60;;;;;;;26.29;55.99;99439.50;5115096;28;20224;-71
2022/07/22 00:05:52;;;;;;;5.03;4.53;;;;;;;26.26;56.48;99444.75;5115015;28;20641;-71
2022/07/22 00:08:20;;;;;;;7.77;4.77;;;;;;;26.29;56.68;99444.16;5114705;28;20195;-71
2022/07/22 00:10:47;;;;;;;4.70;4.30;;;;;;;26.33;56.12;99434.28;5114523;28;20251;-70
2022/07/22 00:13:13;;;;;;;6.90;5.53;;;;;;;26.38;56.54;99442.38;5114707;28;20198;-70
2022/07/22 00:15:40;;;;;;;6.10;5.40;;;;;;;26.42;55.65;99443.38;5114499;28;20609;-69
2022/07/22 00:18:07;;;;;;;5.67;5.17;;;;;;;26.48;56.09;99447.63;5114460;28;20186;-70
2022/07/22 00:20:34;;;;;;;11.70;4.90;;;;;;;26.55;55.94;99445.31;5115184;28;20248;-70
2022/07/22 00:23:00;;;;;;;9.53;4.77;;;;;;;26.54;55.41;99444.50;5114745;28;20195;-70
2022/07/22 00:25:29;;;;;;;5.47;4.97;;;;;;;26.59;55.25;99452.63;5114967;28;20222;-69
2022/07/22 00:27:55;;;;;;;8.60;5.23;;;;;;;26.62;55.64;99448.50;5115397;28;20190;-70
2022/07/22 00:30:23;;;;;;;6.33;4.23;;;;;;;26.59;55.36;99449.09;5114737;28;20190;-70
2022/07/22 00:32:49;;;;;;;5.53;4.00;;;;;;;26.54;54.60;99454.59;5114010;28;20755;-70
2022/07/22 00:35:16;;;;;;;7.33;4.57;;;;;;;26.46;53.71;99452.56;5113989;28;20620;-70
2022/07/22 00:37:43;;;;;;;5.83;4.90;;;;;;;26.32;53.68;99449.00;5114042;28;20670;-71
2022/07/22 00:40:11;;;;;;;7.70;4.37;;;;;;;26.21;53.45;99458.47;5114505;28;20201;-71
2022/07/22 00:42:39;;;;;;;4.67;4.20;;;;;;;26.14;54.07;99466.22;5113997;28;20191;-71
2022/07/22 00:45:08;;;;;;;5.20;4.43;;;;;;;26.12;54.25;99457.50;5113980;28;20214;-71
2022/07/22 00:47:35;;;;;;;4.40;4.00;;;;;;;26.20;53.97;99462.28;5113815;28;20693;-71
2022/07/22 00:50:01;;;;;;;5.40;3.90;;;;;;;26.20;53.80;99462.28;5114670;28;20652;-71
2022/07/22 00:52:28;;;;;;;4.20;3.70;;;;;;;26.09;53.63;99455.41;5113351;28;20202;-71
2022/07/22 00:54:56;;;;;;;7.63;4.60;;;;;;;26.03;54.59;99453.84;5114168;28;20633;-71
2022/07/22 00:57:23;;;;;;;6.13;3.93;;;;;;;25.96;54.71;99456.19;5114475;28;20220;-71
2022/07/22 00:59:51;;;;;;;5.57;4.33;;;;;;;25.90;54.77;99452.69;5113745;28;20654;-70
2022/07/22 01:02:17;;;;;;;5.50;4.60;;;;;;;25.88;54.47;99449.44;5113733;28;20793;-71
2022/07/22 01:04:44;;;;;;;4.93;4.23;;;;;;;25.84;54.99;99453.06;5113791;28;20694;-71
2022/07/22 01:07:11;;;;;;;6.33;4.23;;;;;;;25.82;55.19;99455.25;5113936;28;20197;-71
2022/07/22 01:09:38;;;;;;;4.33;4.00;;;;;;;25.83;55.58;99456.88;5113567;28;20248;-71
2022/07/22 01:12:05;;;;;;;4.40;4.00;;;;;;;25.83;55.79;99456.88;5113574;28;20187;-71
2022/07/22 01:14:32;;;;;;;4.57;4.13;;;;;;;25.88;55.64;99460.31;5113792;28;20622;-71
2022/07/22 01:17:00;;;;;;;4.07;3.67;;;;;;;26.01;55.26;99464.25;5113498;28;20198;-71
2022/07/22 01:19:27;;;;;;;5.20;4.03;;;;;;;26.01;54.86;99453.38;5113644;28;20655;-71
2022/07/22 01:21:55;;;;;;;5.40;4.40;;;;;;;26.00;54.82;99457.19;5113619;28;20194;-71
2022/07/22 01:24:22;;;;;;;7.77;4.27;;;;;;;25.94;55.55;99466.53;5113107;28;20195;-72
2022/07/22 01:26:49;;;;;;;8.37;3.80;;;;;;;26.00;55.94;99468.09;5112925;28;20244;-71
2022/07/22 01:29:16;;;;;;;9.57;4.87;;;;;;;26.10;54.77;99467.91;5113228;28;20198;-71
2022/07/22 01:31:42;;;;;;;6.57;4.00;;;;;;;26.07;54.81;99463.06;5113316;28;20614;-71
2022/07/22 01:34:10;;;;;;;7.47;4.60;;;;;;;26.03;54.99;99462.03;5113050;28;20190;-70
2022/07/22 01:36:36;;;;;;;4.73;4.30;;;;;;;25.99;55.35;99466.44;5113338;28;20202;-71
2022/07/22 01:39:05;;;;;;;10.40;4.53;;;;;;;25.96;55.02;99459.69;5113095;28;20603;-71
2022/07/22 01:41:31;;;;;;;5.20;4.73;;;;;;;25.97;55.18;99457.78;5113222;28;20202;-71
2022/07/22 01:43:58;;;;;;;13.97;4.87;;;;;;;25.87;56.20;99457.91;5113257;28;20187;-71
2022/07/22 01:46:25;;;;;;;9.80;5.17;;;;;;;25.85;56.11;99454.69;5113881;28;20267;-70
2022/07/22 01:48:53;;;;;;;13.47;4.97;;;;;;;25.91;56.18;99450.75;5114090;28;20280;-70
2022/07/22 01:51:19;;;;;;;6.70;3.97;;;;;;;26.05;55.64;99448.94;5112763;28;20186;-70
2022/07/22 01:53:46;;;;;;;7.80;4.50;;;;;;;26.12;55.76;99449.34;5113181;28;20190;-70
2022/07/22 01:56:15;;;;;;;8.20;4.03;;;;;;;26.22;54.69;99450.00;5112967;28;20194;-70
2022/07/22 01:58:42;;;;;;;4.93;4.30;;;;;;;26.31;53.83;99447.38;5112476;28;20194;-70
2022/07/22 02:01:09;;;;;;;4.87;4.33;;;;;;;26.37;54.41;99449.72;5113770;28;20190;-70
2022/07/22 02:03:36;;;;;;;6.53;4.23;;;;;;;26.46;54.09;99450.63;5112952;28;20191;-70
2022/07/22 02:06:03;;;;;;;5.20;4.10;;;;;;;26.58;53.50;99453.72;5111843;28;20275;-70
2022/07/22 02:08:30;;;;;;;4.43;4.03;;;;;;;26.62;52.91;99453.94;5112863;28;20186;-70
2022/07/22 02:10:57;;;;;;;5.43;4.13;;;;;;;26.70;52.77;99450.53;5112881;28;20195;-70
2022/07/22 02:13:25;;;;;;;6.13;3.67;;;;;;;26.69;52.90;99448.88;5112389;28;20194;-70
2022/07/22 02:15:51;;;;;;;7.20;4.67;;;;;;;26.61;52.40;99446.84;5112978;28;20206;-70
2022/07/22 02:18:19;;;;;;;4.33;4.03;;;;;;;26.60;52.77;99451.50;5112355;28;20235;-70
2022/07/22 02:20:47;;;;;;;5.10;4.73;;;;;;;26.53;52.51;99444.78;5112632;28;20239;-70
2022/07/22 02:23:14;;;;;;;5.10;4.20;;;;;;;26.40;53.55;99445.59;5112399;28;20193;-70
2022/07/22 02:25:42;;;;;;;8.00;5.07;;;;;;;26.40;53.19;99446.41;5112570;28;20222;-70
2022/07/22 02:28:09;;;;;;;6.30;5.00;;;;;;;26.43;52.12;99445.00;5112620;28;20194;-70
2022/07/22 02:30:37;;;;;;;5.03;4.23;;;;;;;26.44;52.88;99438.44;5112110;28;20733;-70
2022/07/22 02:33:04;;;;;;;5.20;4.10;;;;;;;26.41;52.52;99441.78;5112187;28;20186;-70
2022/07/22 02:35:31;;;;;;;6.23;5.03;;;;;;;26.38;52.23;99442.38;5112170;28;20659;-70
2022/07/22 02:37:58;;;;;;;7.40;4.33;;;;;;;26.32;52.19;99443.56;5112061;28;20198;-70
2022/07/22 02:40:25;;;;;;;7.77;4.17;;;;;;;26.21;52.92;99442.91;5113384;28;20190;-70
2022/07/22 02:42:52;;;;;;;5.17;4.60;;;;;;;26.20;52.50;99445.94;5112394;28;20553;-69
2022/07/22 02:45:19;;;;;;;10.50;4.67;;;;;;;26.07;53.67;99436.66;5112588;28;20255;-70
2022/07/22 02:47:52;;;;;;;8.53;4.47;;;;;;;25.99;53.64;99434.59;5112504;28;20690;-70
2022/07/22 02:50:19;;;;;;;5.27;4.77;;;;;;;26.05;53.85;99433.41;5112462;28;20182;-70
2022/07/22 02:52:46;;;;;;;7.10;4.87;;;;;;;26.05;54.07;99432.59;5112084;28;20194;-70
2022/07/22 02:55:12;;;;;;;8.93;5.27;;;;;;;25.91;54.39;99428.97;5112109;28;20187;-70
2022/07/22 02:57:39;;;;;;;7.03;5.50;;;;;;;25.77;54.38;99430.84;5112385;28;20187;-71
2022/07/22 03:00:08;;;;;;;7.67;5.97;;;;;;;25.63;55.03;99416.41;5113211;28;20267;-70
2022/07/22 03:02:35;;;;;;;6.13;5.53;;;;;;;25.45;56.15;99418.00;5112331;28;20273;-71
2022/07/22 03:05:03;;;;;;;5.47;4.83;;;;;;;25.44;56.15;99423.75;5111910;28;20276;-71
2022/07/22 03:07:30;;;;;;;6.23;5.73;;;;;;;25.46;55.99;99421.53;5112572;28;20195;-72
2022/07/22 03:09:57;;;;;;;6.40;5.83;;;;;;;25.37;56.44;99421.41;5112184;28;20716;-73
2022/07/22 03:12:24;;;;;;;10.27;6.97;;;;;;;25.33;56.35;99436.69;5112035;28;20217;-73
2022/07/22 03:14:50;;;;;;;8.13;7.33;;;;;;;25.23;56.90;99431.34;5111960;28;20738;-72
2022/07/22 03:17:17;;;;;;;11.23;6.57;;;;;;;25.18;57.02;99427.91;5115143;28;20205;-72
2022/07/22 03:19:44;;;;;;;10.03;7.77;;;;;;;25.16;57.43;99430.09;5115558;28;20190;-72
2022/07/22 03:22:12;;;;;;;8.90;8.00;;;;;;;25.16;57.33;99428.19;5116212;28;20191;-72
2022/07/22 03:24:39;;;;;;;8.87;8.03;;;;;;;25.27;57.24;99434.28;5116109;28;20190;-72
2022/07/22 03:27:05;;;;;;;7.10;6.50;;;;;;;25.40;56.71;99439.84;5115808;28;20303;-72
2022/07/22 03:29:32;;;;;;;9.07;7.13;;;;;;;25.56;57.16;99451.31;5115692;28;20282;-72
2022/07/22 03:31:59;;;;;;;7.27;6.57;;;;;;;25.76;56.33;99440.13;5115998;28;20187;-71
2022/07/22 03:34:25;;;;;;;10.70;6.80;;;;;;;25.98;55.28;99443.88;5115236;28;20190;-71
2022/07/22 03:36:52;;;;;;;7.70;6.53;;;;;;;26.11;54.83;99448.56;5115328;28;20259;-71
2022/07/22 03:39:20;;;;;;;8.03;7.43;;;;;;;26.20;55.05;99446.75;5116073;28;20187;-71
2022/07/22 03:41:47;;;;;;;7.77;6.20;;;;;;;26.23;54.73;99445.34;5115645;28;20191;-71
2022/07/22 03:44:14;;;;;;;8.10;6.47;;;;;;;26.28;54.27;99447.97;5114950;28;20194;-71
2022/07/22 03:46:40;;;;;;;11.37;7.60;;;;;;;26.32;55.24;99438.09;5115409;28;20585;-70
2022/07/22 03:49:07;;;;;;;7.20;6.60;;;;;;;26.22;55.04;99446.47;5115055;28;20236;-70
2022/07/22 03:51:34;;;;;;;13.90;7.57;;;;;;;26.30;54.93;99449.28;5114822;28;20194;-70
2022/07/22 03:54:00;;;;;;;9.03;7.87;;;;;;;26.34;55.17;99453.03;5114710;28;20614;-70
2022/07/22 03:56:29;;;;;;;8.23;7.47;;;;;;;26.40;55.14;99446.41;5114960;28;20194;-70
2022/07/22 03:58:55;;;;;;;8.20;6.97;;;;;;;26.60;54.40;99456.16;5114719;28;20190;-70
2022/07/22 04:01:22;;;;;;;9.93;7.63;;;;;;;26.79;53.25;99463.13;5114394;28;20220;-70
2022/07/22 04:03:49;;;;;;;9.40;7.10;;;;;;;26.90;52.92;99470.00;5114569;27;20235;-70
2022/07/22 04:06:16;;;;;;;12.63;9.10;;;;;;;26.81;53.61;99469.09;5114665;28;20673;-70
2022/07/22 04:08:43;;;;;;;8.67;7.57;;;;;;;27.00;53.31;99469.00;5114605;28;20187;-70
2022/07/22 04:11:10;;;;;;;11.13;8.37;;;;;;;27.54;51.83;99467.03;5114149;28;20239;-70
2022/07/22 04:13:38;;;;;;;13.33;8.00;;;;;;;28.26;49.19;99465.84;5114508;28;20244;-70
2022/07/22 04:16:05;;;;;;;15.43;8.97;;;;;;;28.92;47.37;99470.41;5115584;28;20353;-69
2022/07/22 04:18:32;;;;;;;18.20;9.70;;;;;;;29.57;45.54;99476.75;5115043;28;20194;-69
2022/07/22 04:20:59;;;;;;;8.63;7.67;;;;;;;29.94;44.11;99476.09;5114510;28;20187;-69
2022/07/22 04:23:26;;;;;;;12.93;8.03;;;;;;;30.28;43.10;99476.09;5114426;28;20758;-69
2022/07/22 04:25:52;;;;;;;12.77;8.53;;;;;;;30.66;42.08;99479.69;5114301;27;20275;-68
2022/07/22 04:28:19;;;;;;;16.80;8.43;;;;;;;31.17;40.75;99490.50;5113285;28;20191;-68
2022/07/22 04:30:47;;;;;;;19.67;9.63;;;;;;;31.48;40.23;99477.22;5114351;28;20190;-68
2022/07/22 04:33:14;;;;;;;23.60;11.23;;;;;;;31.86;39.37;99480.72;5114169;28;20244;-67
2022/07/22 04:35:41;;;;;;;18.60;9.60;;;;;;;32.24;38.46;99486.00;5114187;28;20198;-67
2022/07/22 04:38:08;;;;;;;14.30;9.50;;;;;;;32.49;37.62;99491.28;5113811;28;20190;-67
2022/07/22 04:40:34;;;;;;;17.87;9.67;;;;;;;32.88;37.14;99496.22;5113948;28;20255;-67
2022/07/22 04:43:01;;;;;;;21.80;11.57;;;;;;;33.30;35.65;99503.13;5113532;28;20719;-66
2022/07/22 04:45:28;;;;;;;20.20;10.53;;;;;;;33.52;35.43;99498.28;5114444;28;20739;-67
2022/07/22 04:47:56;;;;;;;13.80;9.27;;;;;;;33.55;35.42;99500.38;5113502;28;20226;-67
2022/07/22 04:50:23;;;;;;;17.13;10.07;;;;;;;33.75;35.02;99496.63;5113331;28;20211;-67
2022/07/22 04:52:49;;;;;;;12.83;9.10;;;;;;;33.99;34.21;99499.34;5113797;28;20252;-67
2022/07/22 04:55:16;;;;;;;23.37;10.70;;;;;;;34.24;33.93;99495.34;5113521;28;20620;-65
2022/07/22 04:57:43;;;;;;;15.90;9.73;;;;;;;34.43;33.78;99498.28;5113070;28;20255;-66
2022/07/22 05:00:10;;;;;;;17.90;8.87;;;;;;;34.62;33.67;99501.16;5113599;28;20194;-65
2022/07/22 05:02:37;;;;;;;13.52;10.10;;;;;;;34.66;33.35;99496.53;5113350;28;20195;-66
2022/07/22 05:05:06;;;;;;;27.65;11.00;;;;;;;34.53;33.72;99498.56;5114033;28;20259;-67
2022/07/22 05:07:33;;;;;;;15.25;10.30;;;;;;;34.75;33.35;99491.63;5113264;28;20702;-67
2022/07/22 05:10:00;;;;;;;11.35;7.95;;;;;;;34.87;32.80;99497.13;5113771;28;20194;-67
2022/07/22 05:12:26;;;;;;;13.27;8.15;;;;;;;35.18;32.29;99503.41;5113546;28;20255;-66
2022/07/22 05:14:53;;;;;;;13.35;9.05;;;;;;;35.32;31.91;99498.25;5113400;28;20274;-65
2022/07/22 05:17:20;;;;;;;15.88;9.35;;;;;;;35.81;31.26;99504.16;5113174;28;20198;-65
2022/07/22 05:19:47;;;;;;;13.35;8.60;;;;;;;36.02;30.65;99497.09;5113144;28;20202;-65
2022/07/22 05:22:15;;;;;;;19.55;8.40;;;;;;;35.92;31.37;99496.84;5113421;28;20251;-65
2022/07/22 05:24:42;;;;;;;18.90;9.35;;;;;;;36.08;31.04;99498.41;5113025;28;20195;-64
2022/07/22 05:27:09;;;;;;;20.05;9.38;;;;;;;36.02;31.83;99490.75;5112986;28;20229;-65
2022/07/22 05:29:35;;;;;;;16.65;8.93;;;;;;;36.20;31.10;99500.22;5113274;28;20246;-64
2022/07/22 05:32:02;;;;;;;28.13;9.98;;;;;;;36.33;31.35;99496.16;5114374;27;20705;-65
2022/07/22 05:34:29;;;;;;;24.65;10.85;;;;;;;36.27;31.23;99492.09;5133463;27;20186;-65
2022/07/22 05:36:56;;;;;;;17.63;10.25;;;;;;;36.44;30.48;99488.84;5133474;27;20194;-65
2022/07/22 05:39:24;;;;;;;19.10;10.43;;;;;;;36.57;30.71;99493.03;5132850;27;20194;-66
2022/07/22 05:41:51;;;;;;;18.20;10.65;;;;;;;36.89;30.32;99489.72;5133017;27;20262;-66
2022/07/22 05:44:17;;;;;;;26.10;10.07;;;;;;;36.96;29.75;99494.56;5129388;27;20672;-65
2022/07/22 05:46:44;;;;;;;14.98;9.35;;;;;;;36.90;29.10;99490.50;5132963;27;20701;-65
2022/07/22 05:49:11;;;;;;;12.13;8.88;;;;;;;36.71;30.12;99487.81;5132714;27;20215;-65
2022/07/22 05:51:37;;;;;;;24.40;10.25;;;;;;;36.98;29.64;99486.69;5133366;27;20197;-65
2022/07/22 05:54:04;;;;;;;19.00;8.98;;;;;;;36.82;29.80;99483.25;5133517;27;20201;-65
2022/07/22 05:56:33;;;;;;;14.02;9.85;;;;;;;36.77;30.03;99480.78;5133272;27;20229;-65
2022/07/22 05:59:00;;;;;;;34.47;10.88;;;;;;;37.09;30.04;99484.88;5133216;27;20560;-65
2022/07/22 06:01:26;;;;;;;20.13;9.70;;;;;;;36.86;30.11;99479.38;5132709;27;20627;-65
2022/07/22 06:03:53;;;;;;;24.77;9.40;;;;;;;36.91;30.10;99483.81;5133013;27;20190;-65
2022/07/22 06:06:20;;;;;;;17.30;8.77;;;;;;;37.00;30.06;99479.59;5132885;27;20583;-66
2022/07/22 06:08:47;;;;;;;16.60;9.43;;;;;;;36.87;29.71;99474.63;5132691;27;20801;-66
2022/07/22 06:11:14;;;;;;;21.15;9.68;;;;;;;36.95;29.04;99479.91;5132968;27;20190;-65
2022/07/22 06:13:42;;;;;;;18.65;9.98;;;;;;;36.70;29.25;99484.22;5133010;27;20258;-65
2022/07/22 06:16:08;;;;;;;13.23;9.75;;;;;;;36.70;29.10;99480.69;5132746;27;20197;-65
2022/07/22 06:18:35;;;;;;;14.63;9.50;;;;;;;36.77;29.31;99472.47;5132479;27;20190;-65
2022/07/22 06:21:02;;;;;;;18.80;11.60;;;;;;;37.02;28.88;99482.00;5132543;27;20201;-65
2022/07/22 06:23:29;;;;;;;20.25;10.98;;;;;;;36.86;28.46;99473.84;5132266;27;20668;-66
2022/07/22 06:25:55;;;;;;;11.88;8.98;;;;;;;36.97;28.56;99474.00;5133080;27;20190;-65
2022/07/22 06:28:22;;;;;;;9.45;8.50;;;;;;;37.08;28.04;99480.53;5132326;27;20609;-65
2022/07/22 06:30:50;;;;;;;15.93;9.60;;;;;;;37.22;28.23;99480.78;5132384;27;20641;-66
2022/07/22 06:33:17;;;;;;;15.45;10.32;;;;;;;37.16;28.28;99476.72;5132497;28;20198;-66
2022/07/22 06:35:44;;;;;;;14.13;9.48;;;;;;;37.07;28.08;99467.84;5132153;27;20190;-65
2022/07/22 06:38:10;;;;;;;11.60;8.80;;;;;;;37.22;28.06;99480.00;5132134;27;20246;-65
2022/07/22 06:40:37;;;;;;;11.43;8.15;;;;;;;37.07;28.13;99465.09;5132063;27;20242;-65
2022/07/22 06:43:04;;;;;;;8.98;8.18;;;;;;;36.72;28.14;99464.47;5131912;28;20661;-65
2022/07/22 06:45:31;;;;;;;10.18;8.93;;;;;;;36.86;28.44;99468.28;5131746;28;20656;-65
2022/07/22 06:47:59;;;;;;;8.70;7.97;;;;;;;36.80;28.54;99463.44;5132358;28;20229;-65
2022/07/22 06:50:26;;;;;;;15.88;9.27;;;;;;;36.17;29.90;99470.53;5131938;27;20239;-66
2022/07/22 06:52:53;;;;;;;13.63;9.13;;;;;;;36.31;29.52;99466.09;5135978;27;20194;-66
2022/07/22 06:55:20;;;;;;;18.27;10.82;;;;;;;36.58;29.34;99466.97;5135814;27;20284;-66
2022/07/22 06:57:47;;;;;;;11.15;8.63;;;;;;;36.76;29.51;99465.34;5135686;27;20662;-66
2022/07/22 07:00:14;;;;;;;10.43;8.27;;;;;;;36.84;28.56;99464.28;5136325;27;20246;-66
2022/07/22 07:02:41;;;;;;;14.50;8.45;;;;;;;36.95;29.20;99471.59;5135698;27;20201;-66
2022/07/22 07:05:10;;;;;;;9.55;8.32;;;;;;;36.95;29.08;99465.28;5135451;27;20187;-66
2022/07/22 07:07:37;;;;;;;9.40;7.95;;;;;;;36.87;28.89;99463.56;5136134;27;20677;-66
2022/07/22 07:10:04;;;;;;;9.27;8.20;;;;;;;36.99;28.51;99466.91;5136302;27;20189;-66
2022/07/22 07:12:31;;;;;;;11.95;7.72;;;;;;;37.02;28.85;99451.53;5135577;27;20673;-66
2022/07/22 07:14:58;;;;;;;8.98;7.15;;;;;;;37.30;28.42;99471.38;5135856;27;20190;-66
2022/07/22 07:17:25;;;;;;;11.57;7.97;;;;;;;37.28;28.69;99469.00;5135877;27;20194;-66
2022/07/22 07:19:51;;;;;;;11.07;7.88;;;;;;;37.36;28.65;99475.47;5135394;27;20280;-66
2022/07/22 07:22:19;;;;;;;10.27;7.53;;;;;;;37.25;28.34;99468.94;5136261;27;20194;-66
2022/07/22 07:24:46;;;;;;;9.82;7.18;;;;;;;37.39;27.99;99477.47;5136135;27;20194;-67
2022/07/22 07:27:13;;;;;;;7.25;6.78;;;;;;;37.43;28.43;99474.75;5136189;27;20300;-67
2022/07/22 07:29:40;;;;;;;13.02;6.68;;;;;;;37.62;27.79;99477.41;5136349;27;20250;-66
2022/07/22 07:32:07;;;;;;;9.30;7.75;;;;;;;37.54;28.20;99470.94;5135594;27;20197;-66
2022/07/22 07:34:33;;;;;;;19.35;7.32;;;;;;;37.09;28.69;99466.31;5135340;27;20185;-66
2022/07/22 07:37:00;;;;;;;9.63;7.60;;;;;;;36.65;29.46;99456.81;5136212;27;20202;-66
2022/07/22 07:39:28;;;;;;;7.40;6.70;;;;;;;36.79;29.12;99467.38;5135689;27;20613;-67
2022/07/22 07:41:55;;;;;;;13.35;7.40;;;;;;;37.10;28.48;99458.78;5135385;27;20185;-67
2022/07/22 07:44:22;;;;;;;14.02;7.30;;;;;;;37.42;28.16;99457.31;5135703;27;20197;-67
2022/07/22 07:46:48;;;;;;;10.48;7.25;;;;;;;37.54;27.98;99464.59;5135591;27;20575;-67
2022/07/22 07:49:15;;;;;;;10.10;7.93;;;;;;;37.30;27.81;99465.06;5135201;27;20714;-67
2022/07/22 07:51:42;;;;;;;8.43;7.57;;;;;;;37.02;28.12;99466.19;5135238;27;20194;-66
2022/07/22 07:54:09;;;;;;;56.55;11.43;;;;;;;37.08;28.27;99467.44;5134402;27;20197;-66
2022/07/22 07:56:37;;;;;;;11.25;7.25;;;;;;;36.99;28.66;99466.91;5134950;27;20665;-67
2022/07/22 07:59:04;;;;;;;8.68;7.43;;;;;;;37.07;28.89;99462.31;5134873;27;20189;-66
2022/07/22 08:01:31;;;;;;;7.95;6.70;;;;;;;37.21;28.92;99457.00;5135190;27;20189;-67
2022/07/22 08:03:57;;;;;;;10.30;7.22;;;;;;;37.43;27.96;99464.44;5133642;27;20201;-67
2022/07/22 08:06:24;;;;;;;11.75;6.70;;;;;;;37.61;27.78;99464.75;5135639;27;20201;-67
2022/07/22 08:08:51;;;;;;;9.25;6.72;;;;;;;37.85;27.43;99464.25;5135386;27;20607;-66
2022/07/22 08:11:18;;;;;;;8.43;7.28;;;;;;;38.04;26.78;99464.94;5135148;27;20250;-66
2022/07/22 08:13:46;;;;;;;10.63;6.60;;;;;;;38.22;26.81;99460.41;5135060;27;20571;-66
2022/07/22 08:16:13;;;;;;;6.65;6.10;;;;;;;38.32;26.70;99462.47;5135409;27;20226;-66
2022/07/22 08:18:40;;;;;;;8.90;6.40;;;;;;;38.24;26.59;99455.25;5135084;27;20262;-66
2022/07/22 08:21:07;;;;;;;7.65;7.00;;;;;;;38.31;26.83;99449.78;5135066;27;20194;-66
2022/07/22 08:23:34;;;;;;;10.77;6.43;;;;;;;38.42;26.56;99445.16;5134925;27;20193;-68
2022/07/22 08:26:01;;;;;;;11.75;7.00;;;;;;;38.43;26.30;99446.72;5134571;27;20194;-67
2022/07/22 08:28:28;;;;;;;16.67;7.00;;;;;;;38.36;26.29;99445.84;5134325;27;20278;-66
2022/07/22 08:30:56;;;;;;;13.18;7.20;;;;;;;38.02;26.48;99439.50;5134345;27;20215;-66
2022/07/22 08:33:23;;;;;;;9.32;7.00;;;;;;;37.67;27.03;99452.94;5134521;27;20246;-67
2022/07/22 08:35:50;;;;;;;8.20;6.47;;;;;;;37.42;27.59;99439.88;5134164;27;20194;-66
2022/07/22 08:38:17;;;;;;;6.85;6.22;;;;;;;37.63;26.39;99445.75;5134757;27;20262;-66
2022/07/22 08:40:44;;;;;;;9.00;5.97;;;;;;;37.74;26.50;99443.91;5130153;27;20251;-69
2022/07/22 08:43:11;;;;;;;10.40;5.82;;;;;;;37.93;26.18;99449.31;5133623;27;20557;-67
2022/07/22 08:45:40;;;;;;;7.40;6.30;;;;;;;37.89;27.22;99445.69;5133535;27;20206;-67
2022/07/22 08:48:08;;;;;;;10.60;6.00;;;;;;;37.89;26.24;99449.28;5133529;27;20233;-67
2022/07/22 08:50:35;;;;;;;6.30;5.78;;;;;;;37.67;26.90;99449.38;5132989;27;20202;-67
2022/07/22 08:53:01;;;;;;;9.02;5.68;;;;;;;37.49;26.79;99456.63;5133417;27;20197;-68
2022/07/22 08:55:28;;;;;;;7.47;5.38;;;;;;;37.65;26.22;99448.94;5133341;27;20289;-68
2022/07/22 08:57:55;;;;;;;7.97;5.00;;;;;;;37.22;26.01;99457.81;5132775;27;20266;-69
2022/07/22 09:00:23;;;;;;;68.57;9.30;;;;;;;37.34;26.97;99444.53;5131273;27;20193;-69
2022/07/22 09:02:50;;;;;;;8.88;5.05;;;;;;;37.44;26.33;99449.44;5130999;27;21074;-68
2022/07/22 09:05:19;;;;;;;6.00;5.30;;;;;;;37.24;25.63;99440.41;5131191;27;20197;-68
2022/07/22 09:07:47;;;;;;;13.88;5.65;;;;;;;37.37;26.42;99443.78;5130245;27;20217;-70
2022/07/22 09:10:19;;;;;;;10.73;5.63;;;;;;;37.38;25.67;99450.91;5130754;27;20247;-69
2022/07/22 09:12:57;;;;;;;6.70;5.07;;;;;;;37.44;26.55;99449.44;5132653;27;20239;-68
2022/07/22 09:15:28;;;;;;;21.25;6.45;;;;;;;37.39;26.56;99446.97;5131057;27;20189;-67
2022/07/22 09:17:55;;;;;;;16.45;5.45;;;;;;;37.47;25.66;99447.88;5132406;27;20281;-70
2022/07/22 09:20:24;;;;;;;6.57;5.35;;;;;;;37.43;25.92;99450.59;5131068;27;20276;-68
2022/07/22 09:22:51;;;;;;;14.52;6.25;;;;;;;37.71;25.75;99445.47;5129768;27;20194;-68
2022/07/22 09:25:21;;;;;;;8.32;5.97;;;;;;;37.78;25.57;99441.97;5130064;27;20279;-68
2022/07/22 09:27:50;;;;;;;8.15;5.30;;;;;;;38.05;25.55;99447.09;5131123;27;20689;-68
2022/07/22 09:30:19;;;;;;;12.88;5.95;;;;;;;38.24;24.89;99446.91;5131828;27;20661;-67
2022/07/22 09:32:47;;;;;;;23.40;8.05;;;;;;;38.19;24.95;99452.00;5131708;27;20201;-66
2022/07/22 09:35:15;;;;;;;8.13;7.32;;;;;;;38.00;24.85;99441.06;5132371;27;20189;-67
2022/07/22 09:37:51;;;;;;;10.80;7.60;;;;;;;38.10;24.96;99441.22;5132608;27;20222;-63
2022/07/22 09:40:20;;;;;;;12.63;9.40;;;;;;;38.17;24.59;99438.50;5131633;27;20186;-64
2022/07/22 09:42:49;;;;;;;9.75;7.43;;;;;;;38.12;24.67;99441.63;5132088;27;20189;-63
2022/07/22 09:45:16;;;;;;;8.13;7.10;;;;;;;38.11;24.85;99431.72;5132130;27;20189;-69
2022/07/22 09:47:44;;;;;;;10.57;7.65;;;;;;;37.90;25.22;99433.41;5130865;27;20653;-71
2022/07/22 09:50:20;;;;;;;13.35;7.55;;;;;;;38.02;24.72;99422.88;5131241;27;20673;-64
2022/07/22 09:52:48;;;;;;;8.13;7.45;;;;;;;37.85;25.25;99428.19;5132549;27;20189;-65
2022/07/22 09:55:19;;;;;;;9.65;7.15;;;;;;;38.15;24.79;99428.97;5132671;27;20197;-65
2022/07/22 09:57:46;;;;;;;14.32;8.10;;;;;;;38.05;25.08;99430.44;5132366;27;20194;-64
2022/07/22 10:00:15;;;;;;;10.85;7.25;;;;;;;37.74;25.77;99430.84;5132006;27;20198;-66
2022/07/22 10:02:46;;;;;;;14.48;7.90;;;;;;;37.85;25.60;99422.66;5132482;27;20198;-68
2022/07/22 10:05:14;;;;;;;13.20;7.93;;;;;;;38.05;25.18;99419.34;5133101;27;20234;-66
2022/07/22 10:07:43;;;;;;;11.07;7.53;;;;;;;38.16;25.58;99425.81;5133673;27;20321;-66
2022/07/22 10:10:12;;;;;;;16.08;7.70;;;;;;;38.14;25.22;99413.50;5132662;27;20673;-65
2022/07/22 10:12:40;;;;;;;16.70;7.75;;;;;;;38.14;24.95;99424.59;5133067;27;20284;-65
2022/07/22 10:15:09;;;;;;;9.20;7.10;;;;;;;38.28;25.47;99416.41;5132920;27;20243;-63
2022/07/22 10:17:37;;;;;;;12.50;7.93;;;;;;;38.05;25.40;99408.25;5132548;27;20736;-62
2022/07/22 10:20:05;;;;;;;8.30;7.60;;;;;;;37.51;25.91;99419.00;5132802;27;20200;-64
2022/07/22 10:22:56;;;;;;;8.35;7.40;;;;;;;37.50;25.52;99414.66;5131705;27;20189;-63
2022/07/22 10:25:25;;;;;;;15.68;8.45;;;;;;;37.68;26.26;99407.38;5131619;27;20641;-64
2022/07/22 10:27:55;;;;;;;9.93;9.02;;;;;;;37.11;25.91;99397.44;5131489;27;20313;-61
2022/07/22 10:30:24;;;;;;;9.50;8.80;;;;;;;37.28;25.91;99402.47;5133137;28;20178;-63
2022/07/22 10:33:17;;;;;;;13.02;9.20;;;;;;;37.55;26.99;99394.91;5131158;28;20809;-62
2022/07/22 10:35:55;;;;;;;14.15;8.27;;;;;;;37.71;25.71;99390.00;5113123;27;20198;-62
2022/07/22 10:38:22;;;;;;;13.77;7.72;;;;;;;37.80;25.42;99389.72;5131328;27;20186;-63
2022/07/22 10:40:52;;;;;;;8.43;7.72;;;;;;;38.00;25.04;99394.69;5130392;28;20689;-66
2022/07/22 10:43:21;;;;;;;14.18;8.35;;;;;;;38.16;24.76;99395.28;5130951;28;20317;-63
2022/07/22 10:45:51;;;;;;;15.15;7.35;;;;;;;38.29;24.30;99393.81;5130309;28;20189;-62
2022/07/22 10:48:23;;;;;;;8.75;7.95;;;;;;;38.23;24.53;99392.59;5130797;27;20221;-63
2022/07/22 10:50:56;;;;;;;17.02;8.40;;;;;;;38.29;23.88;99393.03;5129560;27;20209;-62
2022/07/22 10:53:25;;;;;;;9.15;8.45;;;;;;;38.29;24.05;99391.06;5131117;28;20277;-65
2022/07/22 10:56:08;;;;;;;11.63;9.10;;;;;;;38.25;24.94;99384.66;5126794;28;20665;-62
2022/07/22 10:58:54;;;;;;;8.93;8.02;;;;;;;38.35;24.19;99391.50;5127547;28;20218;-62
2022/07/22 11:01:24;;;;;;;12.70;8.00;;;;;;;38.38;24.30;99383.22;5111024;28;20195;-62
2022/07/22 11:03:51;;;;;;;9.55;8.43;;;;;;;38.43;24.73;99374.53;5112566;28;20207;-62
2022/07/22 11:06:24;;;;;;;8.60;7.80;;;;;;;38.10;24.01;99382.13;5111613;28;20654;-63
2022/07/22 11:08:52;;;;;;;11.80;7.35;;;;;;;38.09;23.86;99370.22;5111912;28;20203;-63
2022/07/22 11:11:31;;;;;;;8.77;7.10;;;;;;;38.26;24.01;99377.94;5111090;28;20252;-64
2022/07/22 11:14:00;;;;;;;9.48;7.10;;;;;;;37.84;23.83;99385.00;5109380;28;20214;-64
2022/07/22 11:16:28;;;;;;;15.43;7.05;;;;;;;37.85;24.49;99376.31;5108379;28;20199;-64
2022/07/22 11:18:59;;;;;;;11.73;7.40;;;;;;;37.73;24.51;99379.34;5110767;28;20201;-62
2022/07/22 11:21:28;;;;;;;7.22;6.72;;;;;;;37.88;24.78;99374.75;5108667;28;20190;-63
2022/07/22 11:23:57;;;;;;;7.47;6.78;;;;;;;37.92;24.10;99370.81;5109322;28;20606;-62
2022/07/22 11:26:32;;;;;;;11.90;6.57;;;;;;;38.01;23.41;99374.09;5107726;28;20581;-64
2022/07/22 11:29:01;;;;;;;6.72;6.22;;;;;;;37.92;24.12;99373.59;5119026;28;20198;-63
2022/07/22 11:31:27;;;;;;;6.45;5.85;;;;;;;37.96;23.29;99366.09;5129593;28;20298;-64